Terminal Aerodrome Forecast
Issued by NWS

Home | Current Version | Previous Version | Text Only | Print | Product List | Glossary On
Versions: 1 2 3 4 5 6 7 8 9 10 11 12 13 14 15 16 17 18 19 20 21 22 23 24 25 26 27 28 29 30
917
FTUS43 KDTX 291725
TAFPTK
TAF
KPTK 291725Z 2918/3018 04008KT P6SM -SHRA BKN016 OVC035
     FM292000 06008KT P6SM OVC035
     FM300000 07004KT P6SM BKN045
     FM300500 06003KT P6SM SCT045
     FM301500 10010KT P6SM OVC150=

USA.gov is the U.S. government's official web portal to all federal, state and local government web resources and services.